Time;durP1;ratioP1;P1;durP2;ratioP2;P2;SDS_P1;SDS_P2;PMS_P1;PMS_P2;Temp;Humidity;BMP_temperature;BMP_pressure;BME280_temperature;BME280_humidity;BME280_pressure;Samples;Min_cycle;Max_cycle;Signal;HPM_P1;HPM_P2
2023/08/21 00:01:22;;;;;;;9.60;3.88;;;21.60;1.00;;;;;;5025840;28;20038;-84
2023/08/21 00:03:48;;;;;;;4.70;3.05;;;21.50;1.00;;;;;;5025649;28;20475;-85
2023/08/21 00:06:15;;;;;;;6.57;3.92;;;21.50;1.00;;;;;;5037826;28;20042;-83
2023/08/21 00:08:41;;;;;;;7.40;3.72;;;21.50;1.00;;;;;;5035730;28;20052;-81
2023/08/21 00:11:07;;;;;;;5.68;3.63;;;21.40;1.00;;;;;;5029927;28;20030;-84
2023/08/21 00:13:36;;;;;;;4.43;2.97;;;21.40;1.00;;;;;;5041726;28;20039;-84
2023/08/21 00:16:02;;;;;;;7.35;3.63;;;21.30;1.00;;;;;;5032020;28;20613;-84
2023/08/21 00:18:28;;;;;;;7.05;3.72;;;21.30;1.00;;;;;;5028281;28;20057;-84
2023/08/21 00:20:54;;;;;;;7.85;4.70;;;21.20;1.00;;;;;;5023083;28;20549;-85
2023/08/21 00:23:20;;;;;;;7.25;3.72;;;21.20;1.00;;;;;;5031385;28;20502;-84
2023/08/21 00:25:47;;;;;;;5.40;3.92;;;21.10;19.20;;;;;;5034862;28;20032;-84
2023/08/21 00:28:14;;;;;;;6.25;3.60;;;21.00;35.50;;;;;;5031079;28;20070;-84
2023/08/21 00:30:44;;;;;;;7.70;3.50;;;21.00;45.90;;;;;;5034929;28;20044;-84
2023/08/21 00:33:10;;;;;;;7.13;4.20;;;21.00;57.60;;;;;;5023304;28;20475;-84
2023/08/21 00:35:37;;;;;;;7.35;3.95;;;21.00;54.70;;;;;;5036085;28;20459;-84
2023/08/21 00:38:03;;;;;;;5.43;3.42;;;21.00;51.00;;;;;;5023633;28;20037;-84
2023/08/21 00:40:31;;;;;;;5.63;3.63;;;21.00;50.10;;;;;;5030817;28;20502;-84
2023/08/21 00:42:57;;;;;;;5.00;3.35;;;20.90;53.10;;;;;;5024016;28;20036;-84
2023/08/21 00:45:23;;;;;;;8.65;4.85;;;20.90;64.30;;;;;;5021973;28;20033;-84
2023/08/21 00:47:50;;;;;;;7.45;3.97;;;20.90;65.20;;;;;;5027221;28;20049;-84
2023/08/21 00:50:18;;;;;;;5.60;3.80;;;20.90;62.50;;;;;;5036606;28;20029;-84
2023/08/21 00:52:46;;;;;;;6.00;4.30;;;20.90;68.90;;;;;;5033510;28;20033;-81
2023/08/21 00:55:13;;;;;;;6.60;4.38;;;20.90;59.90;;;;;;5031829;28;20052;-84
2023/08/21 00:57:40;;;;;;;7.75;4.50;;;20.80;64.80;;;;;;5035333;28;20057;-84
2023/08/21 01:00:10;;;;;;;4.93;3.78;;;20.80;68.60;;;;;;5009852;28;20057;-84
2023/08/21 01:02:36;;;;;;;4.80;3.20;;;20.80;74.00;;;;;;5020716;28;20032;-84
2023/08/21 01:05:04;;;;;;;9.65;4.43;;;20.80;83.90;;;;;;5021290;28;20092;-83
2023/08/21 01:07:34;;;;;;;6.75;4.00;;;20.90;70.30;;;;;;5027362;28;20053;-84
2023/08/21 01:10:25;;;;;;;7.88;3.67;;;20.90;69.00;;;;;;5038012;28;20033;-84
2023/08/21 01:13:16;;;;;;;6.05;3.65;;;20.80;53.60;;;;;;5026028;28;20046;-84
2023/08/21 01:15:44;;;;;;;7.32;3.25;;;20.80;62.70;;;;;;5038352;28;20393;-84
2023/08/21 01:18:10;;;;;;;5.50;3.13;;;20.70;59.70;;;;;;5030824;28;20121;-84
2023/08/21 01:20:37;;;;;;;6.78;3.55;;;20.70;58.80;;;;;;5027144;28;20502;-84
2023/08/21 01:23:07;;;;;;;6.25;3.20;;;20.60;68.20;;;;;;5033016;28;20041;-84
2023/08/21 01:25:33;;;;;;;5.90;3.50;;;20.60;85.10;;;;;;5026483;28;20038;-84
2023/08/21 01:28:02;;;;;;;6.38;3.83;;;20.60;77.80;;;;;;5031805;28;20050;-84
2023/08/21 01:30:30;;;;;;;5.85;4.10;;;20.60;80.70;;;;;;5024459;28;20041;-83
2023/08/21 01:33:16;;;;;;;4.30;3.38;;;20.50;91.50;;;;;;5033175;28;20033;-84
2023/08/21 01:35:43;;;;;;;6.93;3.90;;;20.50;99.90;;;;;;5035315;28;20045;-84
2023/08/21 01:38:10;;;;;;;8.05;3.63;;;20.50;99.90;;;;;;5025861;28;20478;-83
2023/08/21 01:40:37;;;;;;;6.82;3.45;;;20.40;99.90;;;;;;5038140;28;20032;-84
2023/08/21 01:43:03;;;;;;;6.38;4.28;;;20.40;99.90;;;;;;5027722;28;20474;-83
2023/08/21 01:45:29;;;;;;;6.07;3.88;;;20.40;99.90;;;;;;5022518;28;20034;-84
2023/08/21 01:47:55;;;;;;;6.22;4.03;;;20.40;99.90;;;;;;5023349;28;20045;-84
2023/08/21 01:50:21;;;;;;;6.55;4.30;;;20.30;99.90;;;;;;5018877;28;20046;-84
2023/08/21 01:52:48;;;;;;;6.30;4.40;;;20.30;99.90;;;;;;5027344;28;20025;-81
2023/08/21 01:55:14;;;;;;;6.97;3.88;;;20.20;99.90;;;;;;5031424;28;20045;-84
2023/08/21 01:57:42;;;;;;;8.65;4.07;;;20.10;99.90;;;;;;5039181;28;20490;-83
2023/08/21 02:00:09;;;;;;;6.22;4.05;;;20.10;99.90;;;;;;5038650;28;20124;-83
2023/08/21 02:02:41;;;;;;;7.20;4.68;;;20.10;99.90;;;;;;5024110;28;20056;-83
2023/08/21 02:05:07;;;;;;;6.78;4.38;;;20.10;99.90;;;;;;5032591;28;20037;-83
2023/08/21 02:07:33;;;;;;;7.57;4.50;;;20.10;99.90;;;;;;5035156;28;20041;-84
2023/08/21 02:10:00;;;;;;;6.75;4.18;;;20.10;99.90;;;;;;5022012;28;20042;-84
2023/08/21 02:12:26;;;;;;;5.38;4.07;;;20.10;99.90;;;;;;5018963;28;20021;-84
2023/08/21 02:14:53;;;;;;;5.95;4.20;;;20.10;99.90;;;;;;5033430;28;20041;-83
2023/08/21 02:17:19;;;;;;;6.97;4.30;;;20.20;99.90;;;;;;5039773;28;20502;-84
2023/08/21 02:19:46;;;;;;;6.95;4.15;;;20.10;99.90;;;;;;5032481;28;20059;-83
2023/08/21 02:22:13;;;;;;;6.57;4.95;;;20.10;99.90;;;;;;5027879;28;20041;-84
2023/08/21 02:24:39;;;;;;;5.78;3.63;;;20.00;99.90;;;;;;5030825;28;20033;-84
2023/08/21 02:27:05;;;;;;;5.32;3.85;;;19.90;99.90;;;;;;5029683;28;20040;-83
2023/08/21 02:29:31;;;;;;;6.28;4.15;;;19.90;99.90;;;;;;5031060;28;20052;-83
2023/08/21 02:31:58;;;;;;;5.95;4.03;;;19.90;99.90;;;;;;5037109;28;20044;-84
2023/08/21 02:34:25;;;;;;;7.07;4.05;;;19.90;99.90;;;;;;5025135;28;20375;-84
2023/08/21 02:36:51;;;;;;;6.07;4.25;;;19.90;99.90;;;;;;5015854;28;20053;-81
2023/08/21 02:39:17;;;;;;;7.55;4.78;;;19.80;99.90;;;;;;5031448;28;20056;-83
2023/08/21 02:41:43;;;;;;;5.97;3.97;;;19.80;99.90;;;;;;5035270;28;20039;-83
2023/08/21 02:44:09;;;;;;;6.20;4.32;;;19.80;99.90;;;;;;5030650;28;20121;-83
2023/08/21 02:46:36;;;;;;;10.15;4.35;;;19.70;99.90;;;;;;5022337;28;20033;-84
2023/08/21 02:49:03;;;;;;;6.05;4.03;;;19.80;99.90;;;;;;5033325;28;20044;-84
2023/08/21 02:51:30;;;;;;;6.05;3.65;;;19.80;99.90;;;;;;5026821;28;20033;-83
2023/08/21 02:53:56;;;;;;;10.27;4.47;;;19.70;99.90;;;;;;5020906;28;20046;-83
2023/08/21 02:56:22;;;;;;;6.07;3.75;;;19.70;99.90;;;;;;5018857;28;20034;-83
2023/08/21 02:58:48;;;;;;;7.40;4.03;;;19.70;99.90;;;;;;5035086;28;20422;-84
2023/08/21 03:01:14;;;;;;;8.13;4.68;;;19.60;99.90;;;;;;5032201;28;20041;-82
2023/08/21 03:03:40;;;;;;;7.72;4.43;;;19.50;99.90;;;;;;5031380;28;20049;-83
2023/08/21 03:06:07;;;;;;;8.20;4.10;;;19.60;99.90;;;;;;5032587;28;20034;-83
2023/08/21 03:08:33;;;;;;;6.90;4.50;;;19.60;99.90;;;;;;5026819;28;20041;-83
2023/08/21 03:10:59;;;;;;;5.97;3.78;;;19.60;99.90;;;;;;5018455;28;20460;-83
2023/08/21 03:13:25;;;;;;;6.05;4.13;;;19.70;99.90;;;;;;5022148;28;20029;-83
2023/08/21 03:15:51;;;;;;;5.93;4.35;;;19.70;99.90;;;;;;5028447;28;20037;-81
2023/08/21 03:18:18;;;;;;;5.93;3.97;;;19.50;99.90;;;;;;5021921;28;20052;-84
2023/08/21 03:20:47;;;;;;;6.53;3.92;;;19.50;99.90;;;;;;5024933;28;20034;-83
2023/08/21 03:23:14;;;;;;;6.43;4.03;;;19.40;99.90;;;;;;5037131;28;20037;-83
2023/08/21 03:25:40;;;;;;;5.82;3.97;;;19.40;99.90;;;;;;5032362;28;20052;-83
2023/08/21 03:28:07;;;;;;;8.73;4.45;;;19.50;99.90;;;;;;5013354;28;20042;-83
2023/08/21 03:30:33;;;;;;;5.93;4.25;;;19.50;99.90;;;;;;5019612;28;20050;-84
2023/08/21 03:32:59;;;;;;;6.38;4.07;;;19.50;99.90;;;;;;5030190;28;20038;-83
2023/08/21 03:35:26;;;;;;;6.95;4.40;;;19.50;99.90;;;;;;5027267;28;20038;-84
2023/08/21 03:37:52;;;;;;;8.95;5.13;;;19.40;99.90;;;;;;5016282;28;20029;-81
2023/08/21 03:40:18;;;;;;;6.30;4.00;;;19.40;99.90;;;;;;5025174;28;20082;-83
2023/08/21 03:42:45;;;;;;;6.00;4.28;;;19.30;99.90;;;;;;5037443;28;20041;-83
2023/08/21 03:45:11;;;;;;;5.70;4.32;;;19.30;99.90;;;;;;5038009;28;20034;-84
2023/08/21 03:47:38;;;;;;;6.07;4.05;;;19.20;99.90;;;;;;5019283;28;20036;-83
2023/08/21 03:50:11;;;;;;;7.43;4.97;;;19.10;99.90;;;;;;5042025;28;20479;-83
2023/08/21 03:52:37;;;;;;;9.13;4.95;;;19.10;99.90;;;;;;5028126;28;20041;-83
2023/08/21 03:55:03;;;;;;;7.00;4.75;;;19.10;99.90;;;;;;5027883;28;20162;-83
2023/08/21 03:57:29;;;;;;;7.70;4.68;;;19.10;99.90;;;;;;5031079;28;20038;-83
2023/08/21 03:59:55;;;;;;;6.45;4.25;;;19.20;99.90;;;;;;5030540;28;20050;-83
2023/08/21 04:02:22;;;;;;;6.07;4.13;;;19.20;99.90;;;;;;5017748;28;20097;-84
2023/08/21 04:04:48;;;;;;;8.90;4.05;;;19.30;99.90;;;;;;5035650;28;20040;-82
2023/08/21 04:07:14;;;;;;;6.90;4.47;;;19.30;99.90;;;;;;5038119;28;20024;-82
2023/08/21 04:09:40;;;;;;;5.90;4.00;;;19.40;99.90;;;;;;5031558;28;20045;-82
2023/08/21 04:12:06;;;;;;;6.50;4.18;;;19.40;99.90;;;;;;5031170;28;20022;-82
2023/08/21 04:14:33;;;;;;;6.55;4.50;;;19.40;99.90;;;;;;5038566;28;20037;-82
2023/08/21 04:16:59;;;;;;;8.98;4.40;;;19.40;99.90;;;;;;5034776;28;20037;-83
2023/08/21 04:19:29;;;;;;;5.07;4.13;;;19.40;99.90;;;;;;5020961;28;20045;-83
2023/08/21 04:21:55;;;;;;;5.88;4.15;;;19.40;99.90;;;;;;5021570;28;20128;-81
2023/08/21 04:24:22;;;;;;;6.90;4.05;;;19.50;99.90;;;;;;5034079;28;20046;-84
2023/08/21 04:26:48;;;;;;;7.95;3.92;;;19.50;99.90;;;;;;5037622;28;20037;-83
2023/08/21 04:29:14;;;;;;;6.50;4.10;;;19.40;99.90;;;;;;5033175;28;20041;-84
2023/08/21 04:31:40;;;;;;;6.78;3.97;;;19.40;99.90;;;;;;5041609;28;20025;-83
2023/08/21 04:34:07;;;;;;;6.45;4.55;;;19.40;99.90;;;;;;5035312;28;20041;-83
2023/08/21 04:36:33;;;;;;;6.45;4.53;;;19.40;99.90;;;;;;5038596;28;20061;-83
2023/08/21 04:39:00;;;;;;;6.53;4.47;;;19.30;99.90;;;;;;5041618;28;20054;-83
2023/08/21 04:41:27;;;;;;;6.35;3.95;;;19.30;99.90;;;;;;5035564;28;20053;-83
2023/08/21 04:43:53;;;;;;;7.88;4.97;;;19.20;99.90;;;;;;5031247;28;20049;-81
2023/08/21 04:46:20;;;;;;;10.40;4.40;;;19.20;99.90;;;;;;5029480;28;20041;-83
2023/08/21 04:48:46;;;;;;;7.13;4.43;;;19.20;99.90;;;;;;5068159;28;20052;-83
2023/08/21 04:51:14;;;;;;;10.52;5.63;;;19.30;99.90;;;;;;5031360;28;20052;-81
2023/08/21 04:53:42;;;;;;;7.00;4.30;;;19.40;99.90;;;;;;5031483;28;20529;-83
2023/08/21 04:56:13;;;;;;;6.63;4.57;;;19.50;99.90;;;;;;5020847;28;20044;-83
2023/08/21 04:58:39;;;;;;;9.07;4.60;;;19.50;99.90;;;;;;5034706;28;20049;-83
2023/08/21 05:01:07;;;;;;;6.75;5.05;;;19.60;99.90;;;;;;5032832;28;20414;-83
2023/08/21 05:03:36;;;;;;;8.27;5.55;;;19.70;99.90;;;;;;5024931;28;20046;-82
2023/08/21 05:06:03;;;;;;;6.72;4.55;;;19.80;99.90;;;;;;5025251;28;20052;-82
2023/08/21 05:08:29;;;;;;;5.63;4.00;;;20.10;99.90;;;;;;5031377;28;20052;-82
2023/08/21 05:10:59;;;;;;;6.95;4.70;;;20.60;99.90;;;;;;5034034;28;20042;-81
2023/08/21 05:13:28;;;;;;;8.45;4.55;;;21.20;1.00;;;;;;5029413;28;20045;-82
2023/08/21 05:15:55;;;;;;;5.82;4.00;;;21.70;1.00;;;;;;5037219;28;20056;-80
2023/08/21 05:18:23;;;;;;;7.95;4.60;;;22.00;1.00;;;;;;5034977;28;20061;-85
2023/08/21 05:20:50;;;;;;;8.10;4.97;;;22.30;99.90;;;;;;5027471;28;20493;-86
2023/08/21 05:23:16;;;;;;;5.47;4.10;;;22.50;99.90;;;;;;5033718;28;20025;-87
2023/08/21 05:25:48;;;;;;;6.97;4.63;;;22.70;99.90;;;;;;5028162;28;20037;-87
2023/08/21 05:28:14;;;;;;;6.05;3.90;;;22.80;99.90;;;;;;5022316;28;20060;-87
2023/08/21 05:30:41;;;;;;;6.03;4.15;;;22.70;99.90;;;;;;5017108;28;20045;-87
2023/08/21 05:33:07;;;;;;;6.18;4.28;;;22.80;99.90;;;;;;5041848;28;20037;-87
2023/08/21 05:35:36;;;;;;;6.88;4.85;;;23.40;99.90;;;;;;5034334;28;20048;-87
2023/08/21 05:38:03;;;;;;;7.05;4.63;;;24.30;99.90;;;;;;5034616;28;20487;-87
2023/08/21 05:40:29;;;;;;;6.00;4.00;;;25.10;99.90;;;;;;5031831;28;20505;-86
2023/08/21 05:42:58;;;;;;;5.70;4.32;;;26.00;19.40;;;;;;5031032;28;20041;-83
2023/08/21 05:45:24;;;;;;;5.88;3.72;;;26.40;1.00;;;;;;5022982;28;20067;-87
2023/08/21 05:47:50;;;;;;;6.25;4.18;;;26.10;1.00;;;;;;5021611;28;20033;-85
2023/08/21 05:50:16;;;;;;;5.68;3.60;;;25.40;22.60;;;;;;5027063;28;20040;-86
2023/08/21 05:52:42;;;;;;;5.38;4.15;;;25.30;28.10;;;;;;5024326;28;20049;-84
2023/08/21 05:55:09;;;;;;;5.65;4.18;;;24.70;93.40;;;;;;5033337;28;20037;-87
2023/08/21 05:57:35;;;;;;;5.97;4.40;;;24.50;99.90;;;;;;5021122;28;20046;-86
2023/08/21 06:00:01;;;;;;;6.65;4.63;;;24.50;99.90;;;;;;5031594;28;20347;-86
2023/08/21 06:02:29;;;;;;;6.25;4.22;;;24.70;99.90;;;;;;5027956;28;20052;-86
2023/08/21 06:04:56;;;;;;;5.18;4.07;;;25.00;80.70;;;;;;5028352;28;20428;-85
2023/08/21 06:07:26;;;;;;;5.30;4.45;;;25.20;42.50;;;;;;5028629;28;20053;-80
2023/08/21 06:09:52;;;;;;;7.38;3.80;;;25.10;46.10;;;;;;5026523;28;20377;-85
2023/08/21 06:12:21;;;;;;;8.30;4.32;;;25.10;40.60;;;;;;5005787;28;20057;-85
2023/08/21 06:14:47;;;;;;;;;;;25.40;25.80;;;;;;5044734;28;20037;-85
2023/08/21 06:17:14;;;;;;;6.47;3.97;;;25.90;1.00;;;;;;5035197;28;19912;-85
2023/08/21 06:19:41;;;;;;;8.48;4.32;;;26.10;1.00;;;;;;5038866;28;20041;-84
2023/08/21 06:22:07;;;;;;;5.88;3.72;;;25.50;1.00;;;;;;5047924;28;20026;-82
2023/08/21 06:24:34;;;;;;;5.57;3.45;;;25.80;1.00;;;;;;5049139;28;20046;-85
2023/08/21 06:27:02;;;;;;;9.80;4.50;;;25.70;1.00;;;;;;5039679;28;20053;-87
2023/08/21 06:29:29;;;;;;;4.20;3.28;;;25.90;1.00;;;;;;5022763;28;20537;-86
2023/08/21 06:31:56;;;;;;;6.15;3.58;;;26.10;1.00;;;;;;5027221;28;20042;-87
2023/08/21 06:34:23;;;;;;;5.93;3.47;;;26.30;1.00;;;;;;5024524;28;20065;-88
2023/08/21 06:36:50;;;;;;;6.70;4.38;;;26.10;1.00;;;;;;5029538;28;20432;-89
2023/08/21 06:39:16;;;;;;;5.93;4.03;;;26.20;1.00;;;;;;5033662;28;20227;-88
2023/08/21 06:41:43;;;;;;;13.27;5.38;;;26.50;1.00;;;;;;5038058;28;20040;-89
2023/08/21 06:44:13;;;;;;;4.57;3.60;;;26.30;1.00;;;;;;5033719;28;20045;-89
2023/08/21 06:46:39;;;;;;;6.13;3.72;;;27.00;1.00;;;;;;5020410;28;20049;-88
2023/08/21 06:49:06;;;;;;;5.10;3.95;;;26.80;1.00;;;;;;5051823;28;20053;-89
2023/08/21 06:51:32;;;;;;;8.07;4.10;;;26.80;1.00;;;;;;5026990;28;20033;-89
2023/08/21 06:53:59;;;;;;;5.65;3.60;;;27.20;1.00;;;;;;5020262;28;20025;-83
2023/08/21 06:56:25;;;;;;;6.75;3.75;;;27.60;1.00;;;;;;5022430;28;20026;-89
2023/08/21 06:58:52;;;;;;;5.50;3.58;;;27.10;1.00;;;;;;5035594;28;20055;-90
2023/08/21 07:01:18;;;;;;;4.63;3.35;;;26.70;1.00;;;;;;5034709;28;20037;-89
2023/08/21 07:03:44;;;;;;;6.25;3.25;;;26.50;1.00;;;;;;5027965;28;20049;-90
2023/08/21 07:06:10;;;;;;;4.72;3.75;;;26.70;1.00;;;;;;5037943;28;20044;-90
2023/08/21 07:08:37;;;;;;;5.38;3.90;;;26.60;1.00;;;;;;5027253;28;20026;-86
2023/08/21 07:11:04;;;;;;;6.72;3.75;;;26.50;1.00;;;;;;5031777;28;20470;-85
2023/08/21 07:13:30;;;;;;;6.57;3.88;;;26.20;1.00;;;;;;5019145;28;20034;-87
2023/08/21 07:15:56;;;;;;;5.20;3.90;;;26.20;1.00;;;;;;5019729;28;20064;-84
2023/08/21 07:18:23;;;;;;;5.47;3.83;;;26.80;1.00;;;;;;5034608;28;20041;-86
2023/08/21 07:20:52;;;;;;;5.65;3.95;;;26.40;1.00;;;;;;5031016;28;20033;-87
2023/08/21 07:23:18;;;;;;;6.88;4.00;;;26.00;1.00;;;;;;5028430;28;20043;-84
2023/08/21 07:25:44;;;;;;;3.92;3.03;;;26.00;1.00;;;;;;5025202;28;20026;-86
2023/08/21 07:28:10;;;;;;;4.80;3.88;;;26.30;1.00;;;;;;5027291;28;20455;-85
2023/08/21 07:30:38;;;;;;;7.20;3.63;;;26.70;1.00;;;;;;5023931;28;20048;-86
2023/08/21 07:33:05;;;;;;;7.10;4.20;;;26.40;1.00;;;;;;5030768;28;20034;-84
2023/08/21 07:35:32;;;;;;;5.32;3.53;;;26.30;1.00;;;;;;5026615;28;20029;-86
2023/08/21 07:37:58;;;;;;;6.15;3.95;;;26.10;1.00;;;;;;5018272;28;20046;-83
2023/08/21 07:40:25;;;;;;;6.10;4.50;;;26.00;1.00;;;;;;5035392;28;20410;-86
2023/08/21 07:42:51;;;;;;;5.20;3.47;;;26.00;1.00;;;;;;5047271;28;20041;-82
2023/08/21 07:45:17;;;;;;;6.07;3.75;;;26.10;1.00;;;;;;5046458;28;20025;-85
2023/08/21 07:47:43;;;;;;;6.22;3.50;;;26.30;1.00;;;;;;5033838;28;20033;-83
2023/08/21 07:50:09;;;;;;;5.32;3.85;;;26.30;1.00;;;;;;5039367;28;20029;-84
2023/08/21 07:52:36;;;;;;;6.65;3.53;;;26.50;1.00;;;;;;5032077;28;20038;-86
2023/08/21 07:55:02;;;;;;;4.95;3.40;;;26.30;1.00;;;;;;5022322;28;20105;-85
2023/08/21 07:57:29;;;;;;;4.95;3.63;;;26.40;1.00;;;;;;5028496;28;20037;-86
2023/08/21 07:59:56;;;;;;;4.38;3.42;;;26.50;1.00;;;;;;5032355;28;20060;-86
2023/08/21 08:02:23;;;;;;;5.78;3.75;;;27.00;1.00;;;;;;5020740;28;20041;-85
2023/08/21 08:04:49;;;;;;;4.60;3.13;;;27.10;1.00;;;;;;5027553;28;20452;-87
2023/08/21 08:07:15;;;;;;;5.22;3.70;;;27.20;1.00;;;;;;5039439;28;20029;-86
2023/08/21 08:09:41;;;;;;;5.65;3.45;;;26.90;1.00;;;;;;5034761;28;20040;-86
2023/08/21 08:12:08;;;;;;;6.20;3.88;;;27.10;1.00;;;;;;5029305;28;20040;-86
2023/08/21 08:14:35;;;;;;;4.15;3.25;;;27.10;1.00;;;;;;5029916;28;20048;-87
2023/08/21 08:17:01;;;;;;;5.22;3.42;;;27.60;1.00;;;;;;5027539;28;20034;-80
2023/08/21 08:19:28;;;;;;;5.22;3.65;;;28.20;1.00;;;;;;5028208;28;20042;-86
2023/08/21 08:21:54;;;;;;;5.43;3.60;;;28.10;99.90;;;;;;5018555;28;20038;-85
2023/08/21 08:24:20;;;;;;;6.68;4.07;;;28.00;1.00;;;;;;5028845;28;20045;-83
2023/08/21 08:26:46;;;;;;;5.10;3.42;;;27.60;1.00;;;;;;5031313;28;20466;-87
2023/08/21 08:29:12;;;;;;;4.63;3.28;;;27.40;1.00;;;;;;5035157;28;20048;-86
2023/08/21 08:31:38;;;;;;;5.25;3.95;;;27.50;1.00;;;;;;5039100;28;20460;-86
2023/08/21 08:34:05;;;;;;;6.55;3.80;;;27.80;1.00;;;;;;5032044;28;20509;-86
2023/08/21 08:36:31;;;;;;;5.03;3.80;;;28.20;99.90;;;;;;5034705;28;20040;-88
2023/08/21 08:38:57;;;;;;;3.78;3.08;;;28.40;99.90;;;;;;5030254;28;20037;-86
2023/08/21 08:41:48;;;;;;;4.38;3.38;;;28.90;99.90;;;;;;5033312;28;20573;-87
2023/08/21 08:44:16;;;;;;;4.00;2.92;;;29.20;99.90;;;;;;5033306;28;20393;-85
2023/08/21 08:46:43;;;;;;;5.82;3.25;;;30.00;99.90;;;;;;5028207;28;20037;-86
2023/08/21 08:49:09;;;;;;;4.45;2.97;;;29.70;99.90;;;;;;5033842;28;20040;-86
2023/08/21 08:51:39;;;;;;;3.42;2.58;;;29.70;99.90;;;;;;5033760;28;20033;-87
2023/08/21 08:54:07;;;;;;;3.80;2.90;;;30.40;99.90;;;;;;5035912;28;20382;-85
2023/08/21 08:56:33;;;;;;;3.63;2.85;;;30.80;99.90;;;;;;5029866;28;20034;-87
2023/08/21 08:58:59;;;;;;;4.35;2.83;;;30.80;99.90;;;;;;5034339;28;20060;-86
2023/08/21 09:01:26;;;;;;;3.83;2.95;;;31.00;99.90;;;;;;5036060;28;20045;-86
2023/08/21 09:03:52;;;;;;;3.75;2.80;;;31.20;99.90;;;;;;5027891;28;20030;-86
2023/08/21 09:06:21;;;;;;;5.25;3.55;;;30.80;99.90;;;;;;5031264;28;20386;-86
2023/08/21 09:08:54;;;;;;;3.60;2.47;;;30.20;99.90;;;;;;5032920;28;20036;-86
2023/08/21 09:11:24;;;;;;;3.85;2.95;;;30.10;99.90;;;;;;5035617;28;20231;-87
2023/08/21 09:13:52;;;;;;;4.40;3.38;;;30.00;99.90;;;;;;5032516;28;20033;-86
2023/08/21 09:16:19;;;;;;;2.95;2.47;;;30.20;99.90;;;;;;5035937;28;20040;-86
2023/08/21 09:18:49;;;;;;;12.85;4.30;;;30.50;99.90;;;;;;5005522;28;20050;-85
2023/08/21 09:21:17;;;;;;;5.50;2.75;;;30.20;99.90;;;;;;5029663;28;20041;-86
2023/08/21 09:23:44;;;;;;;3.78;2.80;;;30.00;99.90;;;;;;5035543;28;20057;-85
2023/08/21 09:26:10;;;;;;;3.95;2.83;;;30.60;99.90;;;;;;5029544;28;20021;-87
2023/08/21 09:28:37;;;;;;;4.15;3.20;;;30.50;99.90;;;;;;5032242;28;20033;-87
2023/08/21 09:31:03;;;;;;;5.82;2.72;;;30.40;99.90;;;;;;5026457;28;20034;-86
2023/08/21 09:33:30;;;;;;;3.85;3.10;;;30.60;99.90;;;;;;5033488;28;20040;-86
2023/08/21 09:35:56;;;;;;;3.72;2.90;;;30.50;99.90;;;;;;5042793;28;20040;-88
2023/08/21 09:38:22;;;;;;;5.35;3.97;;;30.30;99.90;;;;;;5036548;28;20037;-85
2023/08/21 09:40:54;;;;;;;5.57;2.97;;;30.60;99.90;;;;;;5040636;28;20041;-85
2023/08/21 09:43:24;;;;;;;4.22;2.72;;;30.50;99.90;;;;;;5035600;28;20040;-87
2023/08/21 09:45:55;;;;;;;3.63;2.53;;;30.40;99.90;;;;;;5041818;28;20045;-85
2023/08/21 09:48:27;;;;;;;4.65;3.17;;;30.00;99.90;;;;;;5031311;28;20037;-86
2023/08/21 09:50:55;;;;;;;9.45;3.45;;;30.50;99.90;;;;;;5033609;28;20048;-85
2023/08/21 09:53:22;;;;;;;5.07;3.45;;;30.40;99.90;;;;;;5030381;28;20033;-86
2023/08/21 09:55:53;;;;;;;3.65;2.70;;;30.30;99.90;;;;;;5028893;28;20026;-86
2023/08/21 09:58:20;;;;;;;7.85;2.90;;;30.40;99.90;;;;;;5034352;28;20058;-88
2023/08/21 10:00:49;;;;;;;4.28;2.22;;;30.10;99.90;;;;;;5033725;28;20395;-84
2023/08/21 10:03:20;;;;;;;3.40;2.70;;;30.60;99.90;;;;;;5030496;28;20056;-84
2023/08/21 10:05:47;;;;;;;5.35;3.28;;;30.90;99.90;;;;;;5032095;28;20028;-86
2023/08/21 10:08:18;;;;;;;3.85;2.50;;;31.00;99.90;;;;;;5031735;28;20037;-87
2023/08/21 10:10:44;;;;;;;4.38;2.60;;;31.30;99.90;;;;;;5030055;28;20057;-87
2023/08/21 10:13:11;;;;;;;6.90;2.38;;;31.60;99.90;;;;;;5024548;28;20478;-87
2023/08/21 10:15:38;;;;;;;3.38;2.42;;;31.80;99.90;;;;;;5035223;28;20383;-85
2023/08/21 10:18:24;;;;;;;2.97;2.35;;;31.60;99.90;;;;;;5034218;28;20033;-83
2023/08/21 10:20:52;;;;;;;3.38;2.42;;;31.20;99.90;;;;;;5032927;28;20029;-82
2023/08/21 10:23:29;;;;;;;3.17;2.42;;;31.00;99.90;;;;;;5031714;28;20493;-83
2023/08/21 10:25:57;;;;;;;3.10;2.30;;;30.40;99.90;;;;;;5039856;28;20037;-86
2023/08/21 10:28:26;;;;;;;3.83;2.42;;;30.60;99.90;;;;;;5024989;28;20033;-83
2023/08/21 10:30:52;;;;;;;3.75;2.10;;;30.70;99.90;;;;;;5026592;28;20037;-88
2023/08/21 10:33:47;;;;;;;3.65;2.83;;;30.70;99.90;;;;;;5032594;28;20057;-82
2023/08/21 10:36:13;;;;;;;5.50;3.00;;;30.70;99.90;;;;;;5026339;28;20030;-86
2023/08/21 10:38:59;;;;;;;5.13;2.38;;;30.60;99.90;;;;;;5030277;28;20033;-85
2023/08/21 10:41:28;;;;;;;3.97;2.67;;;30.60;99.90;;;;;;5034925;28;20501;-84
2023/08/21 10:43:54;;;;;;;5.28;2.60;;;30.70;99.90;;;;;;5031280;28;20066;-87
2023/08/21 10:46:20;;;;;;;4.13;2.53;;;30.60;99.90;;;;;;5028243;28;20032;-87
2023/08/21 10:48:46;;;;;;;4.65;2.65;;;30.70;99.90;;;;;;5030326;28;20044;-86
2023/08/21 10:51:16;;;;;;;4.10;2.78;;;30.80;99.90;;;;;;5027650;28;20037;-86
2023/08/21 10:53:43;;;;;;;3.47;2.38;;;30.80;99.90;;;;;;5020106;28;20033;-83
2023/08/21 10:56:09;;;;;;;6.50;2.30;;;31.20;99.90;;;;;;5017994;28;20042;-86
2023/08/21 10:58:40;;;;;;;4.78;2.00;;;31.00;99.90;;;;;;5029492;28;20115;-85
2023/08/21 11:01:07;;;;;;;4.28;2.00;;;31.10;99.90;;;;;;5036378;28;20410;-85
2023/08/21 11:03:33;;;;;;;3.17;1.90;;;31.20;99.90;;;;;;5031694;28;20046;-85
2023/08/21 11:06:04;;;;;;;2.83;1.65;;;31.00;99.90;;;;;;5028234;28;20033;-85
2023/08/21 11:08:33;;;;;;;4.32;1.75;;;31.00;99.90;;;;;;5031741;28;20059;-81
2023/08/21 11:11:02;;;;;;;3.88;1.80;;;31.00;99.90;;;;;;5022450;28;20037;-85
2023/08/21 11:13:29;;;;;;;3.33;1.88;;;31.10;99.90;;;;;;5018988;28;20029;-83
2023/08/21 11:16:03;;;;;;;3.45;2.00;;;31.30;99.90;;;;;;5028881;28;20045;-85
2023/08/21 11:18:34;;;;;;;3.42;1.73;;;31.50;99.90;;;;;;5019970;28;20042;-85
2023/08/21 11:21:08;;;;;;;3.20;1.92;;;31.70;99.90;;;;;;5029475;28;20041;-86
2023/08/21 11:23:36;;;;;;;2.60;1.88;;;31.70;99.90;;;;;;5033023;28;20045;-85
2023/08/21 11:26:03;;;;;;;2.67;1.55;;;31.70;99.90;;;;;;5033607;28;20030;-84
2023/08/21 11:28:30;;;;;;;2.78;1.58;;;31.80;99.90;;;;;;5027473;28;20049;-85
2023/08/21 11:30:57;;;;;;;5.20;1.80;;;31.70;99.90;;;;;;5022419;28;20040;-83
2023/08/21 11:33:25;;;;;;;4.50;1.58;;;31.90;99.90;;;;;;5033183;28;20033;-86
2023/08/21 11:35:54;;;;;;;2.22;1.48;;;31.80;99.90;;;;;;5022049;28;20034;-86
2023/08/21 11:38:22;;;;;;;2.90;1.33;;;31.60;99.90;;;;;;5015887;28;20026;-84
2023/08/21 11:40:56;;;;;;;4.38;2.13;;;31.60;99.90;;;;;;5026040;28;20050;-86
2023/08/21 11:43:23;;;;;;;4.00;1.50;;;31.60;99.90;;;;;;5031750;28;20034;-86
2023/08/21 11:45:49;;;;;;;1.98;1.40;;;31.60;99.90;;;;;;5028286;28;20457;-82
2023/08/21 11:48:18;;;;;;;2.38;1.50;;;31.70;99.90;;;;;;5029926;28;20041;-84
2023/08/21 11:50:47;;;;;;;;;;;31.60;99.90;;;;;;5026113;28;20042;-83
2023/08/21 11:53:13;;;;;;;2.65;1.20;;;31.90;99.90;;;;;;5026507;28;19917;-85
2023/08/21 11:55:39;;;;;;;4.03;1.83;;;32.30;95.10;;;;;;5020597;28;20030;-84
2023/08/21 11:58:06;;;;;;;2.22;1.63;;;32.10;97.20;;;;;;5030279;28;20359;-84
2023/08/21 12:00:32;;;;;;;3.67;1.55;;;32.20;99.40;;;;;;5031670;28;20442;-84
2023/08/21 12:03:00;;;;;;;2.65;1.48;;;32.40;93.80;;;;;;5021495;28;20466;-84
2023/08/21 12:05:28;;;;;;;2.67;1.70;;;32.40;81.80;;;;;;5043099;28;20037;-86
2023/08/21 12:07:54;;;;;;;2.35;1.30;;;32.50;93.00;;;;;;5037453;28;20401;-82
2023/08/21 12:10:28;;;;;;;2.30;1.27;;;31.90;94.90;;;;;;5037778;28;20085;-82
2023/08/21 12:12:55;;;;;;;3.47;1.63;;;31.90;91.70;;;;;;5032399;28;20050;-85
2023/08/21 12:15:21;;;;;;;2.45;1.50;;;31.90;91.70;;;;;;5040963;28;20044;-85
2023/08/21 12:17:47;;;;;;;2.85;1.20;;;32.00;87.10;;;;;;5039124;28;20028;-83
2023/08/21 12:20:14;;;;;;;1.88;0.90;;;31.90;93.60;;;;;;5028683;28;20041;-85
2023/08/21 12:22:42;;;;;;;3.38;1.27;;;31.80;89.30;;;;;;5026309;28;20049;-86
2023/08/21 12:25:09;;;;;;;3.10;1.45;;;31.40;93.10;;;;;;5033613;28;20033;-85
2023/08/21 12:27:36;;;;;;;3.83;1.85;;;31.40;94.30;;;;;;5038375;28;20036;-83
2023/08/21 12:30:03;;;;;;;1.90;1.00;;;31.40;95.70;;;;;;5030130;28;20029;-85
2023/08/21 12:32:29;;;;;;;1.63;1.33;;;31.40;97.10;;;;;;5037913;28;20217;-86
2023/08/21 12:34:55;;;;;;;2.20;1.30;;;31.70;98.50;;;;;;5038853;28;20038;-85
2023/08/21 12:37:21;;;;;;;2.72;1.35;;;31.90;83.50;;;;;;5029138;28;20041;-85
2023/08/21 12:39:48;;;;;;;3.08;1.20;;;31.70;84.10;;;;;;5024996;28;20033;-85
2023/08/21 12:42:15;;;;;;;1.85;1.48;;;31.70;86.80;;;;;;5031520;28;20375;-85
2023/08/21 12:44:41;;;;;;;2.10;1.35;;;31.70;86.20;;;;;;5024311;28;20034;-86
2023/08/21 12:47:07;;;;;;;2.20;1.38;;;31.80;80.50;;;;;;5026146;28;20373;-85
2023/08/21 12:49:34;;;;;;;1.95;1.27;;;31.90;74.50;;;;;;5040258;28;20040;-84
2023/08/21 12:52:01;;;;;;;2.72;1.13;;;32.00;79.80;;;;;;5046842;28;20033;-85